Terminal Aerodrome Forecast
Issued by NWS Wilmington, OH

Current Version | Previous Version | Graphics & Text | Print | Product List | Glossary On
Versions: 1 2 3 4 5 6 7 8 9 10 11 12 13 14 15 16 17
142
FTUS41 KILN 092339
TAFDAY
TAF
KDAY 092339Z 1000/1024 27014KT 4SM -SHSN OVC018
      TEMPO 1000/1003 1 1/2SM -SHSN
     FM100400 27014KT P6SM -SHSN OVC022
     FM101000 28016G23KT 1SM -SHSN OVC015
     FM101500 28018G25KT 4SM -SHSN OVC022
     FM101800 28018G25KT P6SM OVC025
     FM102200 28016KT P6SM OVC035=

USA.gov is the U.S. government's official web portal to all federal, state and local government web resources and services.